Lake View, Mississippi
Current Conditions -  °F | °C
As of 9:54 AM on Saturday 22 Nov 2014 (Local Time) from KMEM Reporting Station
Broken Clouds Broken Clouds  
Wind Chill: 60°   Ceiling: 5000
Heat Index: 60°   Visibility: 10mi
Dew Point: 41°   Wind: 12mph
Humidity: 49%   Direction: 170°S
Pressure: 30.25"   Gusts: NA
Location:  34.9578°N, 90.1057°W
Report Text: KMEM 221554Z 17010KT 10SM BKN050 BKN100 BKN230 16/05 A3025 RMK AO2 SLP243 T01560050 $
Loading
Personal Weather Stations






























Interactive Weather Map New forecast layout! Learn more

10-Day Weather Forecast

Advertisements
Track Severe Weather on mobile